Time;durP1;ratioP1;P1;durP2;ratioP2;P2;SDS_P1;SDS_P2;PMS_P1;PMS_P2;Temp;Humidity;BMP_temperature;BMP_pressure;BME280_temperature;BME280_humidity;BME280_pressure;Samples;Min_cycle;Max_cycle;Signal;HPM_P1;HPM_P2
2021/05/26 00:01:20;;;;;;;5.43;2.50;;;11.20;99.90;;;;;;5047455;28;20208;-53
2021/05/26 00:03:47;;;;;;;4.23;2.10;;;11.20;99.90;;;;;;5044209;28;20221;-52
2021/05/26 00:06:13;;;;;;;3.73;2.43;;;11.30;99.90;;;;;;5045249;28;20222;-52
2021/05/26 00:08:40;;;;;;;4.03;2.43;;;11.40;99.90;;;;;;5045841;28;20276;-52
2021/05/26 00:11:17;;;;;;;4.80;2.20;;;11.30;99.90;;;;;;5045703;28;20212;-51
2021/05/26 00:13:46;;;;;;;7.60;3.27;;;11.30;99.90;;;;;;5046870;28;20244;-52
2021/05/26 00:16:16;;;;;;;4.97;2.80;;;11.30;99.90;;;;;;5046238;28;20303;-52
2021/05/26 00:18:43;;;;;;;5.47;3.07;;;11.40;99.90;;;;;;5052718;28;20647;-51
2021/05/26 00:21:10;;;;;;;4.30;3.10;;;11.40;99.90;;;;;;5051601;28;20287;-51
2021/05/26 00:23:37;;;;;;;4.67;3.17;;;11.40;99.90;;;;;;5044007;28;20303;-51
2021/05/26 00:26:04;;;;;;;3.67;2.73;;;11.40;99.90;;;;;;5044153;28;20211;-52
2021/05/26 00:28:31;;;;;;;4.40;2.70;;;11.20;99.90;;;;;;5044761;28;20323;-52
2021/05/26 00:30:59;;;;;;;4.80;3.20;;;11.20;99.90;;;;;;5047045;28;20298;-52
2021/05/26 00:33:27;;;;;;;5.33;3.20;;;11.30;99.90;;;;;;5043521;28;20200;-52
2021/05/26 00:35:54;;;;;;;4.13;2.90;;;11.40;99.90;;;;;;5046202;28;20554;-52
2021/05/26 00:38:21;;;;;;;6.87;3.90;;;11.40;99.90;;;;;;5044008;28;20338;-52
2021/05/26 00:40:48;;;;;;;5.83;3.43;;;11.40;99.90;;;;;;5046848;28;20284;-53
2021/05/26 00:43:16;;;;;;;3.73;2.67;;;11.20;99.90;;;;;;5045594;28;20199;-51
2021/05/26 00:45:45;;;;;;;4.97;3.47;;;11.20;99.90;;;;;;5046020;28;20698;-51
2021/05/26 00:48:12;;;;;;;6.60;3.30;;;11.30;99.90;;;;;;5043692;28;20235;-52
2021/05/26 00:50:40;;;;;;;4.23;3.50;;;11.30;99.90;;;;;;5047870;28;20329;-52
2021/05/26 00:53:12;;;;;;;6.67;3.30;;;11.30;99.90;;;;;;5042022;28;20293;-51
2021/05/26 00:55:41;;;;;;;6.47;3.20;;;11.30;99.90;;;;;;5044389;28;20284;-51
2021/05/26 00:58:09;;;;;;;5.60;3.10;;;11.30;99.90;;;;;;5045251;28;20304;-52
2021/05/26 01:00:38;;;;;;;4.07;3.23;;;11.30;99.90;;;;;;5044644;28;20296;-51
2021/05/26 01:03:05;;;;;;;5.57;3.83;;;11.30;99.90;;;;;;5044321;28;20324;-51
2021/05/26 01:05:33;;;;;;;6.50;3.60;;;11.30;99.90;;;;;;5045704;28;20303;-51
2021/05/26 01:08:00;;;;;;;9.00;4.90;;;11.30;99.90;;;;;;5042684;28;20659;-51
2021/05/26 01:10:29;;;;;;;5.80;4.37;;;11.40;99.90;;;;;;5043485;28;20274;-51
2021/05/26 01:12:56;;;;;;;8.90;4.47;;;11.30;99.90;;;;;;5045237;28;20395;-52
2021/05/26 01:15:24;;;;;;;5.67;4.00;;;11.20;99.90;;;;;;5046778;28;20724;-53
2021/05/26 01:17:52;;;;;;;7.57;4.03;;;11.30;99.90;;;;;;5045575;28;20306;-53
2021/05/26 01:20:26;;;;;;;6.50;4.23;;;11.10;99.90;;;;;;5044798;28;20766;-50
2021/05/26 01:22:54;;;;;;;8.03;4.90;;;11.10;99.90;;;;;;5042269;28;20263;-51
2021/05/26 01:25:21;;;;;;;9.80;4.33;;;11.30;99.90;;;;;;5044428;28;20301;-51
2021/05/26 01:27:48;;;;;;;9.00;4.40;;;11.20;99.90;;;;;;5045014;28;20773;-51
2021/05/26 01:30:16;;;;;;;10.47;4.70;;;11.30;99.90;;;;;;5044807;28;20293;-50
2021/05/26 01:32:46;;;;;;;10.90;4.27;;;11.20;99.90;;;;;;5046127;28;20306;-51
2021/05/26 01:35:14;;;;;;;10.90;4.67;;;11.20;99.90;;;;;;5044681;28;20231;-50
2021/05/26 01:37:43;;;;;;;5.90;4.17;;;11.10;99.90;;;;;;5045507;28;20234;-51
2021/05/26 01:40:12;;;;;;;8.03;4.20;;;11.10;99.90;;;;;;5046179;28;20653;-51
2021/05/26 01:42:40;;;;;;;10.80;4.53;;;11.20;99.90;;;;;;5045328;28;20313;-51
2021/05/26 01:45:09;;;;;;;9.20;4.70;;;11.30;99.90;;;;;;5043411;28;20283;-51
2021/05/26 01:47:37;;;;;;;10.73;4.50;;;11.20;99.90;;;;;;5041229;28;20680;-51
2021/05/26 01:50:05;;;;;;;8.73;5.33;;;11.10;99.90;;;;;;5044874;28;20718;-51
2021/05/26 01:52:32;;;;;;;14.27;4.90;;;10.90;99.90;;;;;;5048966;28;20346;-50
2021/05/26 01:55:01;;;;;;;11.40;6.43;;;10.80;99.90;;;;;;5044138;28;20893;-53
2021/05/26 01:57:28;;;;;;;11.30;5.30;;;10.90;99.90;;;;;;5041950;28;20223;-50
2021/05/26 01:59:55;;;;;;;15.03;6.50;;;10.80;99.90;;;;;;5043976;28;20256;-53
2021/05/26 02:02:23;;;;;;;9.57;5.00;;;10.80;99.90;;;;;;5042713;28;20212;-52
2021/05/26 02:04:51;;;;;;;10.23;4.80;;;10.80;99.90;;;;;;5044465;28;20510;-51
2021/05/26 02:07:18;;;;;;;10.90;5.53;;;10.60;99.90;;;;;;5041863;28;20290;-52
2021/05/26 02:09:45;;;;;;;12.73;5.33;;;10.70;99.90;;;;;;5043085;28;20242;-51
2021/05/26 02:14:49;;;;;;;12.70;5.23;;;10.80;99.90;;;;;;5046400;28;20418;-51
2021/05/26 02:17:17;;;;;;;10.43;5.07;;;10.70;99.90;;;;;;5040272;28;20301;-50
2021/05/26 02:19:44;;;;;;;13.00;5.30;;;10.70;99.90;;;;;;5043984;28;20289;-50
2021/05/26 02:22:11;;;;;;;10.77;5.87;;;10.70;99.90;;;;;;5041030;28;21398;-51
2021/05/26 02:24:39;;;;;;;8.90;4.80;;;10.80;99.90;;;;;;5043349;28;21710;-52
2021/05/26 02:27:06;;;;;;;9.60;5.27;;;10.70;99.90;;;;;;5044240;28;20231;-51
2021/05/26 02:29:33;;;;;;;14.60;5.53;;;10.80;99.90;;;;;;5044029;28;20679;-51
2021/05/26 02:32:00;;;;;;;7.77;4.67;;;10.70;99.90;;;;;;5041381;28;20238;-51
2021/05/26 02:34:27;;;;;;;18.60;5.23;;;10.60;99.90;;;;;;5043952;28;20229;-51
2021/05/26 02:36:54;;;;;;;14.47;4.53;;;10.50;99.90;;;;;;5043570;28;20238;-53
2021/05/26 02:39:21;;;;;;;10.77;5.63;;;10.40;99.90;;;;;;5043692;28;20330;-51
2021/05/26 02:41:48;;;;;;;11.53;5.23;;;10.40;99.90;;;;;;5043964;28;20287;-52
2021/05/26 02:44:15;;;;;;;10.83;4.90;;;10.50;99.90;;;;;;5043158;28;20223;-52
2021/05/26 02:46:42;;;;;;;12.67;5.30;;;10.40;99.90;;;;;;5044193;28;20210;-51
2021/05/26 02:49:08;;;;;;;11.17;5.17;;;10.40;99.90;;;;;;5045762;28;20645;-51
2021/05/26 02:51:36;;;;;;;14.07;4.57;;;10.60;99.90;;;;;;5043165;28;20305;-51
2021/05/26 02:54:05;;;;;;;13.47;5.27;;;10.50;99.90;;;;;;5041017;28;20306;-51
2021/05/26 02:56:33;;;;;;;6.50;3.77;;;10.40;99.90;;;;;;5044612;28;21082;-51
2021/05/26 02:59:01;;;;;;;8.27;4.23;;;10.40;99.90;;;;;;5043052;28;20219;-50
2021/05/26 03:01:27;;;;;;;9.73;4.50;;;10.40;99.90;;;;;;5041899;28;20199;-51
2021/05/26 03:03:54;;;;;;;9.87;4.17;;;10.40;99.90;;;;;;5043702;28;20597;-51
2021/05/26 03:06:21;;;;;;;6.43;3.23;;;10.40;99.90;;;;;;5044951;28;20292;-50
2021/05/26 03:08:48;;;;;;;12.10;3.63;;;10.40;99.90;;;;;;5041889;28;20256;-51
2021/05/26 03:11:16;;;;;;;14.43;4.23;;;10.40;99.90;;;;;;5043525;28;20291;-51
2021/05/26 03:13:43;;;;;;;5.37;3.03;;;10.40;99.90;;;;;;5042448;28;20689;-52
2021/05/26 03:16:10;;;;;;;8.00;3.03;;;10.30;99.90;;;;;;5041561;28;20264;-52
2021/05/26 03:18:38;;;;;;;9.87;2.90;;;10.40;99.90;;;;;;5044771;28;20326;-51
2021/05/26 03:21:04;;;;;;;5.87;3.17;;;10.40;99.90;;;;;;5048210;28;20976;-52
2021/05/26 03:23:31;;;;;;;7.70;2.97;;;10.40;99.90;;;;;;5045821;28;20848;-52
2021/05/26 03:25:58;;;;;;;6.80;3.03;;;10.40;99.90;;;;;;5046986;28;20290;-51
2021/05/26 03:28:25;;;;;;;7.43;2.43;;;10.40;99.90;;;;;;5049183;28;20667;-51
2021/05/26 03:30:52;;;;;;;6.13;2.13;;;10.30;99.90;;;;;;5047246;28;20256;-51
2021/05/26 03:33:19;;;;;;;8.23;2.50;;;10.30;99.90;;;;;;5047668;28;20899;-51
2021/05/26 03:35:46;;;;;;;4.57;2.37;;;10.20;99.90;;;;;;5045502;28;20273;-51
2021/05/26 03:38:13;;;;;;;6.87;3.07;;;10.20;99.90;;;;;;5044750;28;20833;-52
2021/05/26 03:40:40;;;;;;;3.67;2.30;;;10.30;99.90;;;;;;5047266;28;20231;-51
2021/05/26 03:43:07;;;;;;;6.47;2.43;;;10.20;99.90;;;;;;5047545;28;20205;-52
2021/05/26 03:45:34;;;;;;;7.13;2.13;;;10.30;99.90;;;;;;5045270;28;20310;-52
2021/05/26 03:48:02;;;;;;;6.67;2.50;;;10.20;99.90;;;;;;5047003;28;20617;-51
2021/05/26 03:50:28;;;;;;;7.07;2.63;;;10.20;99.90;;;;;;5045678;28;20207;-51
2021/05/26 03:52:56;;;;;;;5.30;2.13;;;10.20;99.90;;;;;;5045482;28;20317;-51
2021/05/26 03:55:25;;;;;;;5.03;2.33;;;10.10;99.90;;;;;;5046811;28;20212;-51
2021/05/26 03:57:52;;;;;;;4.67;2.30;;;10.00;99.90;;;;;;5045997;28;20258;-51
2021/05/26 04:00:21;;;;;;;8.47;2.40;;;10.10;99.90;;;;;;5047628;28;20248;-52
2021/05/26 04:02:49;;;;;;;5.07;2.43;;;10.10;99.90;;;;;;5042841;28;20294;-51
2021/05/26 04:05:16;;;;;;;3.07;2.10;;;10.00;99.90;;;;;;5046238;28;20264;-51
2021/05/26 04:07:43;;;;;;;7.07;2.20;;;10.00;99.90;;;;;;5045877;28;20536;-51
2021/05/26 04:10:10;;;;;;;3.33;1.93;;;10.00;99.90;;;;;;5044918;28;20291;-51
2021/05/26 04:12:37;;;;;;;3.63;1.93;;;10.10;99.90;;;;;;5047776;28;20206;-52
2021/05/26 04:15:07;;;;;;;4.57;2.00;;;10.10;99.90;;;;;;5046344;28;20271;-53
2021/05/26 04:17:34;;;;;;;4.67;2.53;;;10.10;99.90;;;;;;5047412;28;20299;-52
2021/05/26 04:20:04;;;;;;;6.27;2.57;;;10.20;99.90;;;;;;5046682;28;20294;-52
2021/05/26 04:22:33;;;;;;;4.60;2.10;;;10.40;99.90;;;;;;5043848;28;20289;-50
2021/05/26 04:25:00;;;;;;;7.37;2.10;;;10.30;99.90;;;;;;5043008;28;20194;-50
2021/05/26 04:27:27;;;;;;;6.63;2.80;;;10.40;99.90;;;;;;5047928;28;20247;-50
2021/05/26 04:29:55;;;;;;;6.67;2.10;;;10.40;99.90;;;;;;5045785;28;20739;-52
2021/05/26 04:32:22;;;;;;;6.43;2.40;;;10.50;99.90;;;;;;5044886;28;20231;-52
2021/05/26 04:34:51;;;;;;;8.23;2.00;;;10.40;99.90;;;;;;5045446;28;20299;-52
2021/05/26 04:37:18;;;;;;;3.23;2.43;;;10.40;99.90;;;;;;5045961;28;20322;-52
2021/05/26 04:39:45;;;;;;;7.00;3.43;;;10.40;99.90;;;;;;5044056;28;20221;-51
2021/05/26 04:42:12;;;;;;;8.60;2.70;;;10.30;99.90;;;;;;5044069;28;20867;-50
2021/05/26 04:44:39;;;;;;;9.10;3.00;;;10.30;99.90;;;;;;5045968;28;20286;-52
2021/05/26 04:47:05;;;;;;;10.40;3.30;;;10.30;99.90;;;;;;5043958;28;20343;-52
2021/05/26 04:49:32;;;;;;;7.10;3.07;;;10.40;99.90;;;;;;5045158;28;20281;-52
2021/05/26 04:51:59;;;;;;;6.03;3.40;;;10.40;99.90;;;;;;5043272;28;20200;-52
2021/05/26 04:54:26;;;;;;;5.73;3.10;;;10.30;99.90;;;;;;5042896;28;20344;-52
2021/05/26 04:56:53;;;;;;;7.30;3.93;;;10.10;99.90;;;;;;5047391;28;20326;-51
2021/05/26 04:59:20;;;;;;;10.33;4.47;;;10.20;99.90;;;;;;5045533;28;20249;-52
2021/05/26 05:01:47;;;;;;;7.57;3.60;;;10.30;99.90;;;;;;5043067;28;20297;-50
2021/05/26 05:04:14;;;;;;;7.57;3.30;;;10.30;99.90;;;;;;5045618;28;20621;-51
2021/05/26 05:06:40;;;;;;;5.87;3.43;;;10.30;99.90;;;;;;5045002;28;20238;-51
2021/05/26 05:09:08;;;;;;;5.90;3.20;;;10.10;99.90;;;;;;5043361;28;20298;-52
2021/05/26 05:11:35;;;;;;;7.07;3.80;;;10.10;99.90;;;;;;5046288;28;20208;-52
2021/05/26 05:14:02;;;;;;;8.17;4.00;;;10.10;99.90;;;;;;5044455;28;20238;-52
2021/05/26 05:16:29;;;;;;;9.23;4.17;;;10.00;99.90;;;;;;5043739;28;20632;-51
2021/05/26 05:18:55;;;;;;;8.30;3.30;;;10.10;99.90;;;;;;5045032;28;20322;-52
2021/05/26 05:21:22;;;;;;;5.77;3.20;;;10.20;99.90;;;;;;5047336;28;20289;-51
2021/05/26 05:23:49;;;;;;;7.80;2.67;;;10.40;99.90;;;;;;5046527;28;20270;-52
2021/05/26 05:26:16;;;;;;;7.93;3.63;;;10.50;99.90;;;;;;5054430;28;20188;-52
2021/05/26 05:28:44;;;;;;;5.53;3.13;;;10.50;99.90;;;;;;5050405;28;20301;-52
2021/05/26 05:31:10;;;;;;;6.27;2.97;;;10.60;99.90;;;;;;5049789;28;20344;-52
2021/05/26 05:33:37;;;;;;;6.07;3.17;;;10.40;99.90;;;;;;5048018;28;20208;-52
2021/05/26 05:36:05;;;;;;;7.13;3.40;;;10.40;99.90;;;;;;5049098;28;20634;-52
2021/05/26 05:38:32;;;;;;;7.70;2.97;;;10.40;99.90;;;;;;5049461;28;20304;-52
2021/05/26 05:40:58;;;;;;;8.07;2.70;;;10.30;99.90;;;;;;5053953;28;20201;-51
2021/05/26 05:43:25;;;;;;;8.00;3.10;;;10.30;99.90;;;;;;5050038;28;20662;-52
2021/05/26 05:45:52;;;;;;;7.40;3.43;;;10.30;99.90;;;;;;5052549;28;20290;-51
2021/05/26 05:48:19;;;;;;;6.93;3.57;;;10.30;99.90;;;;;;5059697;28;20239;-51
2021/05/26 05:50:46;;;;;;;5.97;4.03;;;10.20;99.90;;;;;;5053306;28;20700;-51
2021/05/26 05:53:13;;;;;;;5.07;3.13;;;10.20;99.90;;;;;;5049922;28;20204;-52
2021/05/26 05:55:40;;;;;;;3.83;3.20;;;10.20;99.90;;;;;;5051866;28;20291;-51
2021/05/26 05:58:10;;;;;;;6.47;3.23;;;10.20;99.90;;;;;;5051252;28;20216;-52
2021/05/26 06:00:38;;;;;;;6.97;2.93;;;10.10;99.90;;;;;;5043121;28;20610;-52
2021/05/26 06:03:05;;;;;;;8.03;3.63;;;10.10;99.90;;;;;;5051929;28;20201;-52
2021/05/26 06:05:32;;;;;;;7.90;3.10;;;10.30;99.90;;;;;;5053931;28;20754;-52
2021/05/26 06:07:59;;;;;;;7.20;2.87;;;10.30;99.90;;;;;;5049096;28;20203;-51
2021/05/26 06:10:26;;;;;;;5.47;3.30;;;10.50;99.90;;;;;;5048316;28;20214;-51
2021/05/26 06:12:55;;;;;;;4.23;2.93;;;10.50;99.90;;;;;;5049653;28;20234;-50
2021/05/26 06:15:23;;;;;;;5.57;3.40;;;10.70;99.90;;;;;;5050124;28;20749;-52
2021/05/26 06:17:50;;;;;;;5.97;3.20;;;10.70;99.90;;;;;;5053297;28;20218;-51
2021/05/26 06:20:17;;;;;;;4.90;3.30;;;10.70;99.90;;;;;;5054825;28;20197;-52
2021/05/26 06:22:47;;;;;;;5.63;3.43;;;10.70;99.90;;;;;;5051030;28;20716;-52
2021/05/26 06:25:14;;;;;;;9.60;3.50;;;10.70;99.90;;;;;;5052118;28;20246;-52
2021/05/26 06:27:41;;;;;;;6.60;3.50;;;10.70;99.90;;;;;;5053287;28;20224;-51
2021/05/26 06:30:08;;;;;;;6.73;3.43;;;10.70;99.90;;;;;;5053053;28;20198;-52
2021/05/26 06:32:35;;;;;;;7.87;3.83;;;10.60;99.90;;;;;;5050629;28;20192;-52
2021/05/26 06:35:04;;;;;;;7.43;3.57;;;10.80;99.90;;;;;;5052482;28;20294;-52
2021/05/26 06:37:31;;;;;;;7.40;3.83;;;10.80;99.90;;;;;;5052264;28;20633;-51
2021/05/26 06:39:58;;;;;;;9.03;3.77;;;10.80;99.90;;;;;;5049012;28;20274;-51
2021/05/26 06:42:25;;;;;;;7.00;3.83;;;10.70;99.90;;;;;;5051980;28;20206;-52
2021/05/26 06:44:51;;;;;;;6.03;4.20;;;11.10;99.90;;;;;;5053484;28;20211;-52
2021/05/26 06:47:19;;;;;;;7.03;4.73;;;11.50;99.90;;;;;;5046112;28;20230;-51
2021/05/26 06:49:46;;;;;;;7.73;4.67;;;11.50;99.90;;;;;;5049395;28;20558;-52
2021/05/26 06:52:13;;;;;;;9.30;5.00;;;11.60;99.90;;;;;;5049896;28;20202;-52
2021/05/26 06:54:40;;;;;;;9.70;5.27;;;11.70;99.90;;;;;;5052931;28;20207;-51
2021/05/26 06:57:07;;;;;;;11.10;5.23;;;11.80;99.90;;;;;;5053785;28;20276;-52
2021/05/26 06:59:33;;;;;;;9.10;5.20;;;12.00;99.90;;;;;;5055509;28;20224;-52
2021/05/26 07:02:00;;;;;;;9.73;5.40;;;12.10;99.90;;;;;;5057181;28;20671;-52
2021/05/26 07:04:27;;;;;;;7.73;5.13;;;11.80;99.90;;;;;;5055255;28;20283;-52
2021/05/26 07:06:58;;;;;;;9.90;5.63;;;11.60;99.90;;;;;;5056856;28;20295;-51
2021/05/26 07:09:25;;;;;;;8.77;5.50;;;11.50;99.90;;;;;;5056114;28;20277;-52
2021/05/26 07:11:52;;;;;;;9.67;5.23;;;11.50;99.90;;;;;;5054272;28;20227;-51
2021/05/26 07:14:26;;;;;;;6.57;5.07;;;11.60;99.90;;;;;;5056609;28;20207;-52
2021/05/26 07:16:53;;;;;;;8.40;5.47;;;11.70;99.90;;;;;;5055640;28;20206;-51
2021/05/26 07:19:19;;;;;;;9.10;5.93;;;11.70;99.90;;;;;;5055852;28;20223;-52
2021/05/26 07:21:46;;;;;;;9.37;6.30;;;11.80;99.90;;;;;;5054888;28;20333;-53
2021/05/26 07:24:14;;;;;;;9.43;6.03;;;11.90;99.90;;;;;;5054637;28;20608;-51
2021/05/26 07:26:40;;;;;;;10.07;6.30;;;12.00;99.90;;;;;;5056971;28;20273;-51
2021/05/26 07:29:07;;;;;;;8.90;5.93;;;11.80;99.90;;;;;;5055949;28;20204;-51
2021/05/26 07:31:34;;;;;;;8.83;5.83;;;11.70;99.90;;;;;;5056265;28;20647;-51
2021/05/26 07:34:01;;;;;;;9.17;6.43;;;11.70;99.90;;;;;;5046613;28;20241;-51
2021/05/26 07:36:28;;;;;;;11.63;6.03;;;11.70;99.90;;;;;;5055134;28;20195;-51
2021/05/26 07:38:55;;;;;;;9.80;6.00;;;11.90;99.90;;;;;;5049274;28;20333;-52
2021/05/26 07:41:22;;;;;;;7.47;6.23;;;11.80;99.90;;;;;;5055125;28;20226;-51
2021/05/26 07:43:48;;;;;;;9.83;6.30;;;12.10;99.90;;;;;;5053222;28;20599;-50
2021/05/26 07:46:16;;;;;;;10.63;6.20;;;12.40;99.90;;;;;;5051700;28;20619;-51
2021/05/26 07:48:43;;;;;;;9.13;7.23;;;12.30;99.90;;;;;;5050402;28;20211;-51
2021/05/26 07:51:15;;;;;;;8.13;6.90;;;12.30;99.90;;;;;;5061425;28;20286;-59
2021/05/26 07:53:42;;;;;;;8.97;6.70;;;12.40;99.90;;;;;;5051814;28;20282;-61
2021/05/26 07:56:09;;;;;;;11.20;6.87;;;12.50;99.90;;;;;;5051319;28;20195;-58
2021/05/26 07:58:36;;;;;;;9.07;7.07;;;12.20;99.90;;;;;;5048948;28;20284;-58
2021/05/26 08:01:03;;;;;;;8.53;7.00;;;12.40;99.90;;;;;;5036904;28;20211;-61
2021/05/26 08:03:30;;;;;;;12.57;7.77;;;12.60;99.90;;;;;;5051973;28;20317;-59
2021/05/26 08:05:57;;;;;;;10.90;7.73;;;12.30;99.90;;;;;;5054539;28;20247;-58
2021/05/26 08:08:24;;;;;;;9.37;7.13;;;12.30;99.90;;;;;;5054175;28;20194;-58
2021/05/26 08:10:51;;;;;;;13.83;7.93;;;12.40;99.90;;;;;;5055100;28;20571;-59
2021/05/26 08:13:17;;;;;;;11.30;8.43;;;12.30;99.90;;;;;;5053317;28;20205;-59
2021/05/26 08:15:44;;;;;;;8.97;7.13;;;12.10;99.90;;;;;;5053893;28;20261;-59
2021/05/26 08:18:11;;;;;;;11.30;8.00;;;12.00;99.90;;;;;;5054463;28;20270;-59
2021/05/26 08:20:41;;;;;;;9.73;8.30;;;12.10;99.90;;;;;;5051554;28;20290;-59
2021/05/26 08:23:08;;;;;;;12.30;8.27;;;12.10;99.90;;;;;;5050851;28;20311;-59
2021/05/26 08:25:35;;;;;;;12.53;8.97;;;12.20;99.90;;;;;;5051826;28;20666;-59
2021/05/26 08:28:03;;;;;;;11.53;7.47;;;12.30;99.90;;;;;;5051186;28;20240;-59
2021/05/26 08:30:29;;;;;;;11.50;7.93;;;12.50;99.90;;;;;;5049594;28;20297;-59
2021/05/26 08:32:56;;;;;;;9.10;7.17;;;12.60;99.90;;;;;;5038419;28;20247;-59
2021/05/26 08:35:23;;;;;;;10.77;8.73;;;12.90;99.90;;;;;;5051259;28;20207;-59
2021/05/26 08:37:50;;;;;;;9.53;8.20;;;12.80;99.90;;;;;;5050817;28;20717;-59
2021/05/26 08:40:19;;;;;;;12.70;9.23;;;12.70;99.90;;;;;;5054134;28;20226;-59
2021/05/26 08:42:48;;;;;;;13.97;9.47;;;12.90;99.90;;;;;;5054129;28;20207;-59
2021/05/26 08:45:16;;;;;;;12.33;9.13;;;12.60;99.90;;;;;;5054392;28;20214;-59
2021/05/26 08:47:45;;;;;;;13.30;9.17;;;12.80;99.90;;;;;;5052985;28;20296;-59
2021/05/26 08:50:14;;;;;;;12.00;8.57;;;13.10;99.90;;;;;;5053701;28;21114;-59
2021/05/26 08:52:43;;;;;;;12.13;9.50;;;13.30;99.90;;;;;;5052799;28;20328;-60
2021/05/26 08:55:15;;;;;;;12.30;8.57;;;13.70;99.90;;;;;;5047842;28;20270;-60
2021/05/26 08:57:42;;;;;;;11.83;8.73;;;13.40;99.90;;;;;;5051161;28;20630;-60
2021/05/26 09:00:10;;;;;;;10.67;7.93;;;13.80;99.90;;;;;;5045904;28;20270;-60
2021/05/26 09:02:37;;;;;;;9.47;7.17;;;14.00;99.90;;;;;;5050416;28;20280;-59
2021/05/26 09:05:27;;;;;;;10.03;8.07;;;13.80;99.90;;;;;;5054598;28;20198;-60
2021/05/26 09:07:55;;;;;;;11.40;8.57;;;13.70;99.90;;;;;;5050779;28;20242;-60
2021/05/26 09:10:23;;;;;;;10.10;6.87;;;13.60;99.90;;;;;;5054542;28;20218;-60
2021/05/26 09:12:51;;;;;;;9.23;6.77;;;13.90;99.90;;;;;;5054907;28;20206;-60
2021/05/26 09:15:20;;;;;;;8.20;6.53;;;14.30;99.90;;;;;;5049507;28;20238;-59
2021/05/26 09:17:49;;;;;;;9.37;6.27;;;14.10;99.90;;;;;;5050265;28;20670;-60
2021/05/26 09:20:27;;;;;;;8.20;6.93;;;14.10;99.90;;;;;;5053937;28;20222;-60
2021/05/26 09:23:18;;;;;;;11.33;6.47;;;13.60;99.90;;;;;;5050960;28;20746;-60
2021/05/26 09:25:44;;;;;;;8.57;6.13;;;13.70;99.90;;;;;;5055089;28;20214;-60
2021/05/26 09:28:25;;;;;;;9.93;7.03;;;14.10;99.90;;;;;;5053495;28;20652;-59
2021/05/26 09:31:06;;;;;;;6.33;5.73;;;13.90;99.90;;;;;;5048705;28;20293;-60
2021/05/26 09:33:51;;;;;;;7.70;5.30;;;13.50;99.90;;;;;;5051361;28;20563;-60
2021/05/26 09:36:25;;;;;;;9.37;5.47;;;13.90;99.90;;;;;;5051906;28;20293;-60
2021/05/26 09:38:59;;;;;;;8.70;4.87;;;14.20;99.90;;;;;;5049252;28;20562;-60
2021/05/26 09:41:31;;;;;;;8.07;5.20;;;14.90;99.90;;;;;;5053595;28;20707;-60
2021/05/26 09:44:00;;;;;;;6.97;4.97;;;14.70;99.90;;;;;;5052278;28;20200;-59
2021/05/26 09:46:36;;;;;;;6.57;4.37;;;14.50;99.90;;;;;;5055480;28;20205;-59
2021/05/26 09:49:03;;;;;;;8.23;4.97;;;14.10;99.90;;;;;;5052641;28;20210;-60
2021/05/26 09:51:32;;;;;;;8.47;4.50;;;14.00;99.90;;;;;;5052203;28;20316;-60
2021/05/26 09:54:19;;;;;;;5.00;4.13;;;14.00;99.90;;;;;;5052925;28;20253;-59
2021/05/26 09:56:48;;;;;;;4.77;3.90;;;13.80;99.90;;;;;;5055152;28;20214;-59
2021/05/26 09:59:16;;;;;;;6.67;4.60;;;13.70;99.90;;;;;;5051338;28;20357;-58
2021/05/26 10:01:43;;;;;;;4.90;3.40;;;14.00;99.90;;;;;;5053626;28;20253;-59
2021/05/26 10:04:10;;;;;;;3.20;2.90;;;13.80;99.90;;;;;;5052493;28;20638;-59
2021/05/26 10:06:43;;;;;;;6.60;3.40;;;14.00;99.90;;;;;;5052763;28;20276;-59
2021/05/26 10:09:12;;;;;;;7.57;3.70;;;14.30;99.90;;;;;;5052586;28;20237;-59
2021/05/26 10:11:40;;;;;;;9.73;4.17;;;14.60;99.90;;;;;;5051507;28;20202;-59
2021/05/26 10:14:12;;;;;;;5.57;3.40;;;14.80;99.90;;;;;;5046702;28;20613;-59
2021/05/26 10:16:42;;;;;;;5.00;3.63;;;15.10;99.90;;;;;;5053379;28;21023;-62
2021/05/26 10:19:11;;;;;;;7.07;4.07;;;15.30;99.90;;;;;;5054302;28;20287;-59
2021/05/26 10:21:40;;;;;;;5.27;3.50;;;14.90;99.90;;;;;;5050182;28;20998;-59
2021/05/26 10:24:10;;;;;;;5.77;3.77;;;14.70;99.90;;;;;;5046738;28;20567;-61
2021/05/26 10:27:22;;;;;;;5.90;3.60;;;14.80;99.90;;;;;;5050152;28;20208;-59
2021/05/26 10:29:42;;;;;;;6.87;3.47;;;14.70;99.90;;;;;;5049643;28;20619;-59
2021/05/26 10:32:25;;;;;;;3.13;2.40;;;15.00;99.90;;;;;;5046981;28;20210;-59
2021/05/26 10:34:54;;;;;;;1.67;1.50;;;14.80;99.90;;;;;;5050585;28;20199;-59
2021/05/26 10:37:39;;;;;;;1.57;1.10;;;14.70;95.50;;;;;;5052738;28;20276;-60
2021/05/26 10:40:30;;;;;;;1.93;1.00;;;14.20;99.90;;;;;;5047152;28;20223;-60
2021/05/26 10:43:18;;;;;;;2.63;0.77;;;13.80;99.90;;;;;;5050427;28;20235;-59
2021/05/26 10:45:56;;;;;;;2.40;1.20;;;13.50;99.90;;;;;;5038295;28;20215;-60
2021/05/26 10:48:43;;;;;;;1.33;1.00;;;13.40;99.90;;;;;;5051056;28;20269;-59
2021/05/26 10:51:12;;;;;;;3.30;1.27;;;13.30;99.90;;;;;;5046963;28;20648;-60
2021/05/26 10:53:41;;;;;;;3.10;1.60;;;13.40;99.90;;;;;;5041608;28;20225;-60
2021/05/26 10:56:37;;;;;;;2.07;1.50;;;13.20;99.90;;;;;;5048617;28;20265;-59
2021/05/26 10:59:12;;;;;;;3.00;2.20;;;13.50;99.90;;;;;;5050064;28;20205;-60
2021/05/26 11:02:18;;;;;;;2.03;1.70;;;14.00;99.90;;;;;;5049804;28;20218;-59
2021/05/26 11:04:49;;;;;;;2.83;1.90;;;14.30;99.90;;;;;;4962627;28;20695;-60
2021/05/26 11:07:17;;;;;;;6.07;2.40;;;13.90;99.90;;;;;;4975781;28;20282;-60
2021/05/26 11:10:02;;;;;;;4.57;2.30;;;13.90;99.90;;;;;;4977960;28;20213;-60
2021/05/26 11:12:55;;;;;;;2.03;1.50;;;13.80;99.90;;;;;;4959406;28;20218;-60
2021/05/26 11:15:41;;;;;;;4.43;2.43;;;13.90;99.90;;;;;;4978622;28;20213;-60
2021/05/26 11:18:13;;;;;;;4.10;1.90;;;13.90;99.90;;;;;;4978872;28;20229;-60
2021/05/26 11:20:40;;;;;;;3.53;1.77;;;13.70;99.90;;;;;;4978983;28;20214;-60
2021/05/26 11:23:12;;;;;;;5.63;2.63;;;13.40;99.90;;;;;;4975800;28;20782;-60
2021/05/26 11:25:56;;;;;;;3.43;1.90;;;13.30;99.90;;;;;;4974793;28;20666;-61
2021/05/26 11:28:34;;;;;;;2.97;2.20;;;13.40;99.90;;;;;;4974416;28;20281;-61
2021/05/26 11:31:08;;;;;;;2.63;2.00;;;13.60;99.90;;;;;;4977542;28;20213;-61
2021/05/26 11:33:36;;;;;;;2.47;1.40;;;14.40;99.90;;;;;;4976719;28;20217;-60
2021/05/26 11:36:08;;;;;;;1.23;1.13;;;14.30;99.90;;;;;;4977618;28;20204;-61
2021/05/26 11:38:35;;;;;;;4.23;1.00;;;14.30;99.90;;;;;;5000937;28;20303;-61
2021/05/26 11:41:30;;;;;;;3.30;1.50;;;14.20;99.90;;;;;;5038237;28;20211;-60
2021/05/26 11:43:57;;;;;;;3.43;1.27;;;14.60;99.90;;;;;;5052536;28;20283;-61
2021/05/26 11:46:25;;;;;;;2.20;1.60;;;14.80;99.90;;;;;;5051028;28;20202;-60
2021/05/26 11:48:52;;;;;;;2.67;1.30;;;14.80;99.90;;;;;;5048668;28;20210;-59
2021/05/26 11:51:25;;;;;;;3.13;1.30;;;15.00;99.90;;;;;;5049653;28;20566;-59
2021/05/26 11:53:56;;;;;;;4.47;1.50;;;15.40;99.90;;;;;;5045403;28;20212;-59
2021/05/26 11:56:23;;;;;;;4.87;1.70;;;15.00;99.90;;;;;;5051301;28;20260;-61
2021/05/26 11:58:50;;;;;;;4.10;1.50;;;14.80;99.90;;;;;;5051642;28;20295;-60
2021/05/26 12:01:17;;;;;;;2.90;1.57;;;15.20;99.90;;;;;;5046010;28;20404;-52
2021/05/26 12:03:45;;;;;;;4.70;0.93;;;15.20;99.90;;;;;;5046592;28;20276;-60
2021/05/26 12:06:12;;;;;;;4.17;1.10;;;15.50;99.90;;;;;;5049063;28;20722;-61
2021/05/26 12:08:41;;;;;;;3.60;1.40;;;16.00;83.70;;;;;;5048706;28;20202;-60
2021/05/26 12:11:14;;;;;;;2.93;1.00;;;15.60;90.50;;;;;;5047609;28;20212;-60
2021/05/26 12:13:43;;;;;;;5.17;1.43;;;15.10;99.40;;;;;;5048410;28;20559;-60
2021/05/26 12:16:13;;;;;;;1.80;1.13;;;15.40;99.90;;;;;;5047608;28;20211;-60
2021/05/26 12:18:48;;;;;;;1.13;0.87;;;15.50;99.90;;;;;;5049601;28;20352;-60
2021/05/26 12:21:16;;;;;;;1.63;0.80;;;16.00;99.80;;;;;;5044689;28;20333;-60
2021/05/26 12:23:45;;;;;;;3.20;1.03;;;15.70;99.90;;;;;;5039611;28;20679;-61
2021/05/26 12:26:24;;;;;;;1.53;0.90;;;15.40;99.10;;;;;;5049768;28;20212;-61
2021/05/26 12:28:53;;;;;;;2.40;1.00;;;15.00;99.90;;;;;;5048016;28;20796;-61
2021/05/26 12:31:21;;;;;;;1.60;0.90;;;14.40;99.90;;;;;;5045096;28;20307;-61
2021/05/26 12:33:52;;;;;;;2.33;1.13;;;14.50;99.90;;;;;;5044767;28;20274;-61
2021/05/26 12:36:21;;;;;;;1.33;1.20;;;14.80;99.90;;;;;;5041803;28;20297;-61
2021/05/26 12:38:55;;;;;;;1.43;1.20;;;15.10;99.90;;;;;;5043160;28;20759;-60
2021/05/26 12:41:34;;;;;;;4.60;1.93;;;15.30;99.90;;;;;;5050847;28;20316;-60
2021/05/26 12:44:07;;;;;;;2.13;1.30;;;15.20;99.90;;;;;;5034929;28;20267;-60
2021/05/26 12:46:55;;;;;;;3.10;1.40;;;15.80;99.90;;;;;;5047483;28;20236;-60
2021/05/26 12:49:38;;;;;;;1.63;1.53;;;15.50;99.90;;;;;;5049592;28;20200;-61
2021/05/26 12:52:26;;;;;;;2.70;1.30;;;15.00;99.90;;;;;;5051345;28;20202;-60
2021/05/26 12:54:53;;;;;;;2.97;1.20;;;15.40;99.90;;;;;;5050141;28;20236;-60
2021/05/26 12:57:24;;;;;;;5.23;1.37;;;15.20;99.90;;;;;;5051758;28;20354;-60
2021/05/26 13:00:00;;;;;;;0.97;0.57;;;15.50;99.90;;;;;;5053709;28;20193;-60